createdAt,value
2022-08-14T00:00:01.484Z,0
2022-08-14T00:01:01.916Z,0
2022-08-14T00:02:06.678Z,0
2022-08-14T00:03:03.172Z,0
2022-08-14T00:04:03.350Z,0
2022-08-14T00:05:02.301Z,0
2022-08-14T00:06:31.717Z,0
2022-08-14T00:07:04.218Z,0
2022-08-14T00:08:02.555Z,0
2022-08-14T00:09:06.676Z,0
2022-08-14T00:10:58.049Z,0
2022-08-14T00:11:14.705Z,0
2022-08-14T00:12:57.020Z,0
2022-08-14T00:13:18.120Z,0
2022-08-14T00:14:19.855Z,0
2022-08-14T00:15:13.273Z,0
2022-08-14T00:16:47.394Z,0
2022-08-14T00:17:13.655Z,0
2022-08-14T00:19:18.932Z,0
2022-08-14T00:19:37.415Z,0
2022-08-14T00:20:45.948Z,0
2022-08-14T00:21:36.877Z,0
2022-08-14T00:23:20.507Z,0
2022-08-14T00:23:33.493Z,0
2022-08-14T00:24:40.400Z,0
2022-08-14T00:26:21.576Z,0
2022-08-14T00:26:35.384Z,0
2022-08-14T00:27:42.565Z,0
2022-08-14T00:28:40.103Z,0
2022-08-14T00:29:43.065Z,0
2022-08-14T00:30:35.089Z,0
2022-08-14T00:32:00.767Z,0
2022-08-14T00:33:20.745Z,0
2022-08-14T00:34:53.479Z,0
2022-08-14T00:35:11.629Z,0
2022-08-14T00:36:55.835Z,0
2022-08-14T00:37:11.145Z,0
2022-08-14T00:38:14.832Z,0
2022-08-14T00:39:14.312Z,0
2022-08-14T00:40:37.995Z,0
2022-08-14T00:41:13.254Z,0
2022-08-14T00:42:56.559Z,0
2022-08-14T00:43:10.844Z,0
2022-08-14T00:44:12.888Z,0
2022-08-14T00:45:13.797Z,0
2022-08-14T00:46:35.511Z,0
2022-08-14T00:47:13.328Z,0
2022-08-14T00:48:10.285Z,0
2022-08-14T00:49:14.445Z,0
2022-08-14T00:50:20.309Z,0
2022-08-14T00:51:10.388Z,0
2022-08-14T00:52:17.949Z,0
2022-08-14T00:53:15.325Z,0
2022-08-14T00:54:24.346Z,0
2022-08-14T00:55:10.623Z,0
2022-08-14T00:56:20.891Z,0
2022-08-14T00:57:11.270Z,0
2022-08-14T00:58:11.229Z,0
2022-08-14T00:59:11.017Z,0
2022-08-14T01:00:37.626Z,0
2022-08-14T01:01:13.047Z,0
2022-08-14T01:02:14.536Z,0
2022-08-14T01:03:12.039Z,0
2022-08-14T01:04:56.696Z,0
2022-08-14T01:05:10.566Z,0
2022-08-14T01:06:14.979Z,0
2022-08-14T01:07:16.612Z,0
2022-08-14T01:08:59.916Z,0
2022-08-14T01:09:13.466Z,0
2022-08-14T01:10:10.952Z,0
2022-08-14T01:11:11.839Z,0
2022-08-14T01:12:12.691Z,0
2022-08-14T01:13:11.905Z,0
2022-08-14T01:14:33.828Z,0
2022-08-14T01:15:17.315Z,0
2022-08-14T01:16:17.116Z,0
2022-08-14T01:17:13.978Z,0
2022-08-14T01:18:15.006Z,0
2022-08-14T01:19:10.541Z,0
2022-08-14T01:20:32.303Z,0
2022-08-14T01:21:13.693Z,0
2022-08-14T01:22:21.227Z,0
2022-08-14T01:23:18.654Z,0
2022-08-14T01:24:34.307Z,0
2022-08-14T01:25:12.166Z,0
2022-08-14T01:26:38.838Z,0
2022-08-14T01:27:15.842Z,0
2022-08-14T01:28:57.668Z,0
2022-08-14T01:29:18.246Z,0
2022-08-14T01:30:12.562Z,0
2022-08-14T01:31:14.251Z,0
2022-08-14T01:32:25.682Z,0
2022-08-14T01:33:15.127Z,0
2022-08-14T01:36:23.450Z,0
2022-08-14T01:36:41.590Z,0
2022-08-14T01:37:38.212Z,0
2022-08-14T01:38:39.401Z,0
2022-08-14T01:39:42.581Z,0
2022-08-14T01:40:46.661Z,0
2022-08-14T01:41:37.924Z,0
2022-08-14T01:42:47.257Z,0
2022-08-14T01:43:40.886Z,0
2022-08-14T01:44:43.567Z,0
2022-08-14T01:45:57.510Z,0
2022-08-14T01:46:43.447Z,0
2022-08-14T01:47:42.184Z,0
2022-08-14T01:48:36.945Z,0
2022-08-14T01:50:03.786Z,0
2022-08-14T01:50:36.211Z,0
2022-08-14T01:51:35.797Z,0
2022-08-14T01:53:06.809Z,0
2022-08-14T01:53:42.225Z,0
2022-08-14T01:55:00.107Z,0
2022-08-14T01:55:35.985Z,0
2022-08-14T01:56:42.096Z,0
2022-08-14T01:58:31.195Z,0
2022-08-14T01:59:02.398Z,0
2022-08-14T01:59:48.556Z,0
2022-08-14T02:00:43.708Z,0
2022-08-14T02:01:57.897Z,0
2022-08-14T02:02:48.963Z,0
2022-08-14T02:03:57.051Z,0
2022-08-14T02:05:04.215Z,0
2022-08-14T02:05:45.637Z,0
2022-08-14T02:06:41.613Z,0
2022-08-14T02:08:22.345Z,0
2022-08-14T02:09:02.326Z,0
2022-08-14T02:10:02.857Z,0
2022-08-14T02:11:03.939Z,0
2022-08-14T02:12:05.162Z,0
2022-08-14T02:13:09.950Z,0
2022-08-14T02:14:00.982Z,0
2022-08-14T02:15:08.740Z,0
2022-08-14T02:16:02.163Z,0
2022-08-14T02:17:02.410Z,0
2022-08-14T02:18:01.158Z,0
2022-08-14T02:19:00.917Z,0
2022-08-14T02:20:01.300Z,0
2022-08-14T02:21:04.909Z,0
2022-08-14T02:22:08.382Z,0
2022-08-14T02:23:05.592Z,0
2022-08-14T02:24:38.687Z,0
2022-08-14T02:25:03.255Z,0
2022-08-14T02:26:28.997Z,0
2022-08-14T02:29:05.932Z,0
2022-08-14T02:29:17.964Z,0
2022-08-14T02:30:21.388Z,0
2022-08-14T02:31:36.335Z,0
2022-08-14T02:32:51.706Z,0
2022-08-14T02:33:18.982Z,0
2022-08-14T02:34:33.161Z,0
2022-08-14T02:35:21.902Z,0
2022-08-14T02:37:17.730Z,0
2022-08-14T02:37:52.438Z,0
2022-08-14T02:38:40.621Z,0
2022-08-14T02:39:32.639Z,0
2022-08-14T02:40:42.818Z,0
2022-08-14T02:41:58.038Z,0
2022-08-14T02:42:57.556Z,0
2022-08-14T02:43:48.777Z,0
2022-08-14T02:44:48.963Z,0
2022-08-14T02:45:44.324Z,0
2022-08-14T02:46:51.886Z,0
2022-08-14T02:47:31.316Z,0
2022-08-14T02:49:15.719Z,0
2022-08-14T02:49:45.078Z,0
2022-08-14T02:50:38.671Z,0
2022-08-14T02:51:39.231Z,0
2022-08-14T02:53:12.095Z,0
2022-08-14T02:53:42.382Z,0
2022-08-14T02:54:33.652Z,0
2022-08-14T02:55:34.319Z,0
2022-08-14T02:57:45.497Z,0
2022-08-14T02:58:29.348Z,0
2022-08-14T02:59:12.400Z,0
2022-08-14T03:00:20.782Z,0
2022-08-14T03:01:14.052Z,0
2022-08-14T03:03:01.263Z,0
2022-08-14T03:03:16.581Z,0
2022-08-14T03:04:20.469Z,0
2022-08-14T03:05:18.003Z,0
2022-08-14T03:06:34.834Z,0
2022-08-14T03:07:21.565Z,0
2022-08-14T03:08:21.198Z,0
2022-08-14T03:09:17.278Z,0
2022-08-14T03:10:48.537Z,0
2022-08-14T03:11:17.632Z,0
2022-08-14T03:12:33.089Z,0
2022-08-14T03:13:27.745Z,0
2022-08-14T03:14:20.694Z,0
2022-08-14T03:15:27.533Z,0
2022-08-14T03:16:40.731Z,0
2022-08-14T03:17:19.564Z,0
2022-08-14T03:18:33.123Z,0
2022-08-14T03:19:21.820Z,0
2022-08-14T03:20:19.642Z,0
2022-08-14T03:21:16.112Z,0
2022-08-14T03:22:30.103Z,0
2022-08-14T03:23:18.959Z,0
2022-08-14T03:24:30.099Z,0
2022-08-14T03:25:18.687Z,4
2022-08-14T03:26:34.986Z,4
2022-08-14T03:27:17.220Z,0
2022-08-14T03:28:39.236Z,4
2022-08-14T03:29:26.756Z,4
2022-08-14T03:30:43.926Z,4
2022-08-14T03:31:19.875Z,4
2022-08-14T03:32:19.155Z,8
2022-08-14T03:49:39.687Z,68
2022-08-14T03:50:38.065Z,80
2022-08-14T03:51:29.897Z,84
2022-08-14T03:53:03.323Z,100
2022-08-14T03:53:34.202Z,104
2022-08-14T03:54:28.596Z,116
2022-08-14T03:55:30.324Z,128
2022-08-14T03:56:29.919Z,136
2022-08-14T03:57:30.039Z,152
2022-08-14T03:58:41.600Z,168
2022-08-14T03:59:33.825Z,180
2022-08-14T04:00:52.487Z,200
2022-08-14T04:01:45.719Z,220
2022-08-14T04:02:57.716Z,240
2022-08-14T04:03:34.346Z,248
2022-08-14T04:04:30.799Z,268
2022-08-14T04:05:29.892Z,284
2022-08-14T04:06:50.004Z,308
2022-08-14T04:07:36.013Z,324
2022-08-14T04:08:37.920Z,348
2022-08-14T04:09:33.602Z,372
2022-08-14T04:10:38.337Z,400
2022-08-14T04:11:28.738Z,420
2022-08-14T04:12:34.959Z,452
2022-08-14T04:13:34.648Z,476
2022-08-14T04:14:30.511Z,504
2022-08-14T04:15:30.539Z,532
2022-08-14T04:16:35.713Z,560
2022-08-14T04:17:33.067Z,584
2022-08-14T04:18:28.461Z,616
2022-08-14T04:19:34.898Z,656
2022-08-14T04:20:32.649Z,696
2022-08-14T04:21:28.233Z,728
2022-08-14T04:22:29.179Z,756
2022-08-14T04:23:37.319Z,796
2022-08-14T04:24:39.706Z,828
2022-08-14T04:25:29.392Z,852
2022-08-14T04:26:50.043Z,892
2022-08-14T04:27:29.922Z,912
2022-08-14T04:29:21.625Z,964
2022-08-14T04:29:37.410Z,972
2022-08-14T04:30:44.593Z,1008
2022-08-14T04:33:22.720Z,1040
2022-08-14T04:33:39.127Z,1040
2022-08-14T04:34:35.007Z,1044
2022-08-14T04:36:03.031Z,1032
2022-08-14T04:36:38.616Z,1028
2022-08-14T04:37:35.717Z,1032
2022-08-14T04:38:47.007Z,1044
2022-08-14T04:39:36.490Z,1056
2022-08-14T04:40:40.349Z,1068
2022-08-14T04:41:39.403Z,1076
2022-08-14T04:42:34.679Z,1076
2022-08-14T04:43:45.313Z,1076
2022-08-14T04:44:51.492Z,1076
2022-08-14T04:45:37.087Z,1080
2022-08-14T04:47:04.142Z,1096
2022-08-14T04:47:39.628Z,1100
2022-08-14T04:49:02.288Z,1128
2022-08-14T04:49:46.687Z,1144
2022-08-14T04:50:58.655Z,1176
2022-08-14T04:51:57.943Z,1200
2022-08-14T04:52:39.632Z,1232
2022-08-14T04:53:48.162Z,1284
2022-08-14T04:54:34.400Z,1304
2022-08-14T04:55:35.678Z,1320
2022-08-14T04:56:45.394Z,1336
2022-08-14T04:57:37.104Z,1380
2022-08-14T04:58:39.250Z,1448
2022-08-14T04:59:34.642Z,1500
2022-08-14T05:00:36.359Z,1556
2022-08-14T05:01:50.830Z,1600
2022-08-14T05:02:39.081Z,1644
2022-08-14T05:03:35.645Z,1740
2022-08-14T05:04:34.304Z,1836
2022-08-14T05:05:38.869Z,1924
2022-08-14T05:06:45.563Z,2004
2022-08-14T05:08:12.019Z,2180
2022-08-14T05:09:07.250Z,2312
2022-08-14T05:10:24.808Z,2436
2022-08-14T05:11:07.588Z,2468
2022-08-14T05:13:24.429Z,2560
2022-08-14T05:15:00.586Z,2316
2022-08-14T05:15:14.746Z,2280
2022-08-14T05:16:13.803Z,2264
2022-08-14T05:17:14.326Z,2360
2022-08-14T05:19:32.157Z,2580
2022-08-14T05:22:21.439Z,2492
2022-08-14T05:22:35.450Z,2488
2022-08-14T05:23:34.945Z,2480
2022-08-14T05:24:37.229Z,2480
2022-08-14T05:25:38.996Z,2480
2022-08-14T05:26:35.669Z,2484
2022-08-14T05:27:38.435Z,2500
2022-08-14T05:28:37.320Z,2500
2022-08-14T05:29:35.116Z,2520
2022-08-14T05:30:35.410Z,2548
2022-08-14T05:31:46.812Z,2572
2022-08-14T05:32:36.623Z,2592
2022-08-14T05:33:37.365Z,2616
2022-08-14T05:34:37.578Z,2640
2022-08-14T05:35:38.444Z,2660
2022-08-14T05:36:41.573Z,2676
2022-08-14T05:37:37.176Z,2688
2022-08-14T05:38:39.978Z,2704
2022-08-14T05:39:36.531Z,2716
2022-08-14T05:40:35.348Z,2740
2022-08-14T05:42:00.509Z,2744
2022-08-14T05:42:40.772Z,2748
2022-08-14T05:43:49.534Z,2772
2022-08-14T05:44:38.656Z,2796
2022-08-14T05:45:36.086Z,2840
2022-08-14T05:46:35.515Z,2892
2022-08-14T05:47:45.209Z,2952
2022-08-14T05:48:50.875Z,3012
2022-08-14T05:49:43.012Z,3060
2022-08-14T05:50:37.290Z,3104
2022-08-14T05:51:38.442Z,3148
2022-08-14T05:52:46.293Z,3200
2022-08-14T05:54:00.431Z,3236
2022-08-14T05:54:42.409Z,3272
2022-08-14T05:55:44.978Z,3308
2022-08-14T05:56:39.348Z,3344
2022-08-14T05:57:37.068Z,3376
2022-08-14T05:58:48.130Z,3408
2022-08-14T05:59:45.220Z,3428
2022-08-14T06:00:44.044Z,3500
2022-08-14T06:01:40.027Z,3624
2022-08-14T06:02:35.585Z,3820
2022-08-14T06:03:36.582Z,4096
2022-08-14T06:04:37.716Z,4448
2022-08-14T06:05:38.431Z,4736
2022-08-14T06:06:43.517Z,4884
2022-08-14T06:07:36.835Z,4744
2022-08-14T06:08:46.315Z,4312
2022-08-14T06:09:53.095Z,3984
2022-08-14T06:10:38.035Z,3876
2022-08-14T06:11:39.008Z,3808
2022-08-14T06:13:11.049Z,3804
2022-08-14T06:13:51.002Z,3820
2022-08-14T06:14:35.482Z,3844
2022-08-14T06:15:39.712Z,3876
2022-08-14T06:16:39.469Z,3900
2022-08-14T06:18:01.938Z,3920
2022-08-14T06:18:38.903Z,3924
2022-08-14T06:19:36.952Z,3932
2022-08-14T06:20:42.321Z,3944
2022-08-14T06:21:37.332Z,3960
2022-08-14T06:22:37.250Z,3976
2022-08-14T06:23:35.316Z,4000
2022-08-14T06:24:48.496Z,4020
2022-08-14T06:25:37.946Z,4044
2022-08-14T06:26:39.758Z,4068
2022-08-14T06:27:43.019Z,4084
2022-08-14T06:28:36.518Z,4104
2022-08-14T06:29:40.643Z,4124
2022-08-14T06:30:52.644Z,4156
2022-08-14T06:31:35.210Z,4180
2022-08-14T06:32:58.547Z,4200
2022-08-14T06:35:18.762Z,4236
2022-08-14T06:35:30.960Z,4244
2022-08-14T06:36:29.316Z,4276
2022-08-14T06:37:29.778Z,4300
2022-08-14T06:38:30.003Z,4316
2022-08-14T06:39:48.599Z,4316
2022-08-14T06:40:42.986Z,4308
2022-08-14T06:42:08.370Z,4304
2022-08-14T06:42:51.524Z,4296
2022-08-14T06:43:51.349Z,4320
2022-08-14T06:44:43.524Z,4328
2022-08-14T06:45:57.083Z,4460
2022-08-14T06:46:51.512Z,4800
2022-08-14T06:47:51.053Z,4836
2022-08-14T06:48:49.017Z,4824
2022-08-14T06:50:00.383Z,11392
2022-08-14T06:50:47.455Z,19456
2022-08-14T06:51:56.012Z,22304
2022-08-14T06:52:54.703Z,17696
2022-08-14T06:53:43.635Z,17568
2022-08-14T06:54:44.113Z,23904
2022-08-14T06:56:04.605Z,26112
2022-08-14T06:56:59.373Z,24544
2022-08-14T06:57:46.875Z,22528
2022-08-14T06:58:45.229Z,25408
2022-08-14T06:59:45.260Z,29312
2022-08-14T07:00:48.479Z,29440
2022-08-14T07:01:44.254Z,29504
2022-08-14T07:02:50.584Z,30752
2022-08-14T07:03:49.088Z,30752
2022-08-14T07:04:43.928Z,31456
2022-08-14T07:06:00.453Z,29408
2022-08-14T07:07:01.163Z,30240
2022-08-14T07:07:47.525Z,31808
2022-08-14T07:08:45.973Z,31232
2022-08-14T07:09:56.282Z,31584
2022-08-14T07:10:45.068Z,31008
2022-08-14T07:11:44.765Z,32608
2022-08-14T07:13:10.380Z,33312
2022-08-14T07:13:44.639Z,32320
2022-08-14T07:14:45.505Z,31872
2022-08-14T07:15:49.893Z,33664
2022-08-14T07:16:44.193Z,34496
2022-08-14T07:17:45.333Z,32896
2022-08-14T07:18:45.375Z,33568
2022-08-14T07:19:44.331Z,33504
2022-08-14T07:20:44.679Z,34112
2022-08-14T07:21:43.609Z,36832
2022-08-14T07:23:22.594Z,35584
2022-08-14T07:23:56.070Z,35232
2022-08-14T07:24:43.368Z,35264
2022-08-14T07:25:46.553Z,33280
2022-08-14T07:26:46.886Z,24768
2022-08-14T07:27:48.397Z,13700
2022-08-14T07:28:50.164Z,8168
2022-08-14T07:29:47.485Z,7092
2022-08-14T07:30:56.383Z,6384
2022-08-14T07:31:46.637Z,6060
2022-08-14T07:32:43.451Z,5812
2022-08-14T07:33:53.034Z,5608
2022-08-14T07:34:48.455Z,5508
2022-08-14T07:36:09.015Z,5396
2022-08-14T07:37:03.916Z,5336
2022-08-14T07:37:44.318Z,5304
2022-08-14T07:38:54.742Z,5256
2022-08-14T07:39:49.709Z,5256
2022-08-14T07:40:55.620Z,5268
2022-08-14T07:41:48.374Z,5260
2022-08-14T07:42:48.694Z,5240
2022-08-14T07:43:47.572Z,5260
2022-08-14T07:44:58.585Z,5324
2022-08-14T07:45:44.873Z,5344
2022-08-14T07:46:46.943Z,5320
2022-08-14T07:47:46.479Z,5300
2022-08-14T07:48:46.083Z,5036
2022-08-14T07:49:45.965Z,4968
2022-08-14T07:50:47.828Z,5452
2022-08-14T07:51:45.129Z,5716
2022-08-14T07:52:48.168Z,5808
2022-08-14T07:53:49.412Z,5760
2022-08-14T07:54:45.022Z,5740
2022-08-14T07:55:46.094Z,5684
2022-08-14T07:57:06.438Z,5724
2022-08-14T07:57:59.687Z,5716
2022-08-14T07:59:02.798Z,5712
2022-08-14T07:59:56.372Z,5712
2022-08-14T08:01:01.761Z,5696
2022-08-14T08:02:00.690Z,5608
2022-08-14T08:03:02.882Z,5668
2022-08-14T08:04:16.842Z,5072
2022-08-14T08:04:58.830Z,5160
2022-08-14T08:05:55.218Z,5372
2022-08-14T08:06:56.474Z,4872
2022-08-14T08:07:53.983Z,5012
2022-08-14T08:09:07.973Z,5664
2022-08-14T08:09:57.336Z,5636
2022-08-14T08:11:17.399Z,5584
2022-08-14T08:12:04.679Z,5620
2022-08-14T08:12:54.605Z,5604
2022-08-14T08:14:02.269Z,5564
2022-08-14T08:15:12.345Z,5520
2022-08-14T08:15:54.389Z,5508
2022-08-14T08:16:55.937Z,5496
2022-08-14T08:18:08.618Z,5468
2022-08-14T08:19:04.203Z,5020
2022-08-14T08:19:56.139Z,4808
2022-08-14T08:21:04.232Z,4996
2022-08-14T08:21:54.475Z,6184
2022-08-14T08:23:08.143Z,7800
2022-08-14T08:23:58.716Z,7084
2022-08-14T08:24:56.184Z,6240
2022-08-14T08:25:53.489Z,6132
2022-08-14T08:26:55.978Z,5648
2022-08-14T08:27:56.747Z,5568
2022-08-14T08:28:52.694Z,6204
2022-08-14T08:29:59.984Z,5684
2022-08-14T08:30:59.846Z,6276
2022-08-14T08:32:05.885Z,6952
2022-08-14T08:32:57.009Z,7148
2022-08-14T08:33:56.407Z,6676
2022-08-14T08:34:55.020Z,6260
2022-08-14T08:35:58.275Z,5480
2022-08-14T08:36:54.662Z,5408
2022-08-14T08:39:22.371Z,5816
2022-08-14T08:40:11.942Z,6520
2022-08-14T08:40:44.724Z,6372
2022-08-14T08:41:39.962Z,6012
2022-08-14T08:43:03.840Z,4964
2022-08-14T08:43:45.749Z,5336
2022-08-14T08:44:45.919Z,5660
2022-08-14T08:45:41.963Z,6020
2022-08-14T08:46:45.246Z,5812
2022-08-14T08:47:40.831Z,5992
2022-08-14T08:50:01.767Z,5720
2022-08-14T08:51:46.043Z,5476
2022-08-14T08:52:39.449Z,5332
2022-08-14T08:53:40.136Z,5232
2022-08-14T08:54:41.054Z,5268
2022-08-14T08:55:42.424Z,5392
2022-08-14T08:56:49.001Z,5620
2022-08-14T08:57:39.849Z,6004
2022-08-14T08:58:42.932Z,6200
2022-08-14T08:59:46.972Z,6144
2022-08-14T09:00:45.378Z,6012
2022-08-14T09:01:40.444Z,6040
2022-08-14T09:02:40.408Z,6000
2022-08-14T09:03:51.438Z,5712
2022-08-14T09:04:53.779Z,5540
2022-08-14T09:05:40.958Z,5368
2022-08-14T09:07:15.974Z,5268
2022-08-14T09:07:43.671Z,5208
2022-08-14T09:08:43.754Z,5088
2022-08-14T09:10:06.043Z,5028
2022-08-14T09:10:40.758Z,5172
2022-08-14T09:11:43.153Z,5408
2022-08-14T09:12:41.157Z,5744
2022-08-14T09:13:40.066Z,5732
2022-08-14T09:14:42.434Z,5748
2022-08-14T09:15:51.400Z,5776
2022-08-14T09:16:39.921Z,5704
2022-08-14T09:17:42.774Z,5600
2022-08-14T09:18:40.276Z,5476
2022-08-14T09:19:43.897Z,5340
2022-08-14T09:20:44.840Z,5268
2022-08-14T09:21:44.641Z,5212
2022-08-14T09:22:52.639Z,5180
2022-08-14T09:24:43.867Z,5044
2022-08-14T09:24:54.006Z,5016
2022-08-14T09:26:32.299Z,4840
2022-08-14T09:26:57.058Z,4804
2022-08-14T09:27:55.176Z,4720
2022-08-14T09:28:56.733Z,4632
2022-08-14T09:30:13.018Z,4556
2022-08-14T09:30:54.095Z,4536
2022-08-14T09:32:02.500Z,4496
2022-08-14T09:33:26.933Z,4456
2022-08-14T09:34:35.783Z,4452
2022-08-14T09:35:19.331Z,4472
2022-08-14T09:36:20.848Z,4512
2022-08-14T09:37:18.223Z,4576
2022-08-14T09:38:33.048Z,4660
2022-08-14T09:39:30.898Z,4564
2022-08-14T09:40:31.840Z,4464
2022-08-14T09:41:20.116Z,4616
2022-08-14T09:42:52.278Z,4632
2022-08-14T09:43:24.748Z,4648
2022-08-14T09:44:26.543Z,4760
2022-08-14T09:45:18.993Z,4872
2022-08-14T09:46:30.275Z,4876
2022-08-14T09:47:21.528Z,4840
2022-08-14T09:48:27.810Z,4884
2022-08-14T09:49:26.701Z,5036
2022-08-14T09:50:19.756Z,5192
2022-08-14T09:51:21.240Z,5244
2022-08-14T09:52:46.395Z,5296
2022-08-14T09:54:19.744Z,5792
2022-08-14T09:54:36.644Z,5936
2022-08-14T09:55:48.618Z,6012
2022-08-14T09:56:39.761Z,6524
2022-08-14T09:57:38.265Z,6196
2022-08-14T09:58:37.259Z,5424
2022-08-14T09:59:43.509Z,5704
2022-08-14T10:00:38.039Z,6392
2022-08-14T10:01:42.485Z,7720
2022-08-14T10:02:48.133Z,7716
2022-08-14T10:03:40.470Z,8200
2022-08-14T10:04:52.545Z,8244
2022-08-14T10:05:41.482Z,7908
2022-08-14T10:06:37.052Z,7492
2022-08-14T10:07:37.832Z,6404
2022-08-14T10:08:38.135Z,6448
2022-08-14T10:09:44.311Z,5956
2022-08-14T10:10:44.145Z,6408
2022-08-14T10:11:45.832Z,6060
2022-08-14T10:12:41.235Z,5808
2022-08-14T10:13:58.092Z,5608
2022-08-14T10:14:43.745Z,5216
2022-08-14T10:15:38.003Z,4564
2022-08-14T10:16:42.943Z,3908
2022-08-14T10:17:48.500Z,3932
2022-08-14T10:18:39.498Z,4132
2022-08-14T10:19:43.745Z,4280
2022-08-14T10:20:52.155Z,4436
2022-08-14T10:23:25.257Z,5600
2022-08-14T10:23:45.345Z,5804
2022-08-14T10:24:50.903Z,6392
2022-08-14T10:25:48.309Z,6536
2022-08-14T10:26:46.157Z,6860
2022-08-14T10:27:43.955Z,6928
2022-08-14T10:29:31.090Z,6648
2022-08-14T10:29:43.489Z,6656
2022-08-14T10:30:44.616Z,7068
2022-08-14T10:31:55.514Z,7320
2022-08-14T10:33:00.922Z,6732
2022-08-14T10:33:47.981Z,6268
2022-08-14T10:34:52.455Z,6080
2022-08-14T10:35:52.457Z,5712
2022-08-14T10:37:05.044Z,5268
2022-08-14T10:37:49.150Z,4988
2022-08-14T10:38:54.252Z,5364
2022-08-14T10:40:37.064Z,4772
2022-08-14T10:41:08.391Z,5004
2022-08-14T10:42:04.392Z,5724
2022-08-14T10:43:03.116Z,5768
2022-08-14T10:44:00.968Z,5664
2022-08-14T10:45:01.006Z,5348
2022-08-14T10:48:23.513Z,5576
2022-08-14T10:48:54.105Z,5584
2022-08-14T10:49:59.622Z,5320
2022-08-14T10:50:53.791Z,4968
2022-08-14T10:52:00.901Z,4836
2022-08-14T10:52:55.124Z,4756
2022-08-14T10:54:01.493Z,4996
2022-08-14T10:55:01.184Z,5076
2022-08-14T10:55:58.757Z,4864
2022-08-14T10:56:54.965Z,5008
2022-08-14T10:57:55.423Z,5232
2022-08-14T10:58:54.804Z,5440
2022-08-14T10:59:55.070Z,5796
2022-08-14T11:01:02.275Z,5620
2022-08-14T11:01:55.914Z,5728
2022-08-14T11:03:03.564Z,5312
2022-08-14T11:04:05.526Z,5348
2022-08-14T11:04:59.320Z,5576
2022-08-14T11:06:01.025Z,5856
2022-08-14T11:06:54.189Z,6004
2022-08-14T11:08:02.247Z,5636
2022-08-14T11:08:58.973Z,5744
2022-08-14T11:09:56.543Z,6036
2022-08-14T11:10:59.064Z,5556
2022-08-14T11:12:45.020Z,5508
2022-08-14T11:12:56.668Z,5480
2022-08-14T11:13:56.098Z,5356
2022-08-14T11:15:05.463Z,5804
2022-08-14T11:15:57.340Z,5732
2022-08-14T11:17:00.488Z,5772
2022-08-14T11:18:01.078Z,6020
2022-08-14T11:19:04.320Z,6748
2022-08-14T11:20:01.780Z,6760
2022-08-14T11:20:58.330Z,7232
2022-08-14T11:22:02.442Z,8340
2022-08-14T11:23:04.859Z,8468
2022-08-14T11:24:02.532Z,8372
2022-08-14T11:25:08.987Z,8116
2022-08-14T11:26:08.709Z,8076
2022-08-14T11:27:05.852Z,8116
2022-08-14T11:28:04.595Z,7868
2022-08-14T11:29:07.049Z,7180
2022-08-14T11:30:57.108Z,5556
2022-08-14T11:31:13.246Z,5476
2022-08-14T11:32:12.225Z,5420
2022-08-14T11:33:13.967Z,5676
2022-08-14T11:34:37.080Z,6440
2022-08-14T11:35:14.036Z,6744
2022-08-14T11:36:35.572Z,6796
2022-08-14T11:37:51.510Z,7316
2022-08-14T11:38:33.593Z,7636
2022-08-14T11:39:41.753Z,7764
2022-08-14T11:40:40.714Z,7632
2022-08-14T11:41:35.256Z,7360
2022-08-14T11:43:04.617Z,6764
2022-08-14T11:43:38.319Z,6292
2022-08-14T11:44:59.920Z,6376
2022-08-14T11:45:34.441Z,6212
2022-08-14T11:46:45.518Z,5776
2022-08-14T11:48:10.987Z,5396
2022-08-14T11:49:24.315Z,5284
2022-08-14T11:50:40.772Z,5420
2022-08-14T11:51:16.417Z,5592
2022-08-14T11:52:14.314Z,5544
2022-08-14T11:53:18.099Z,5332
2022-08-14T11:54:33.501Z,5164
2022-08-14T11:55:16.294Z,5116
2022-08-14T11:56:19.719Z,5172
2022-08-14T11:57:22.731Z,5304
2022-08-14T11:58:26.593Z,5332
2022-08-14T11:59:18.303Z,5244
2022-08-14T12:00:39.666Z,5300
2022-08-14T12:01:17.025Z,5276
2022-08-14T12:03:07.101Z,5892
2022-08-14T12:04:01.066Z,5984
2022-08-14T12:04:41.124Z,5792
2022-08-14T12:05:25.406Z,5984
2022-08-14T12:06:51.555Z,6132
2022-08-14T12:07:22.572Z,6236
2022-08-14T12:08:34.810Z,6280
2022-08-14T12:09:26.518Z,6232
2022-08-14T12:10:49.000Z,6164
2022-08-14T12:11:21.977Z,6196
2022-08-14T12:12:46.059Z,6024
2022-08-14T12:13:29.736Z,5820
2022-08-14T12:14:50.686Z,5904
2022-08-14T12:15:23.175Z,5816
2022-08-14T12:16:27.778Z,5676
2022-08-14T12:17:38.206Z,5372
2022-08-14T12:18:28.970Z,4764
2022-08-14T12:19:22.291Z,4684
2022-08-14T12:20:36.560Z,4704
2022-08-14T12:21:29.489Z,4716
2022-08-14T12:22:40.213Z,4672
2022-08-14T12:23:21.897Z,4648
2022-08-14T12:24:48.513Z,4996
2022-08-14T12:25:21.709Z,4980
2022-08-14T12:26:47.888Z,4804
2022-08-14T12:27:32.859Z,4712
2022-08-14T12:29:04.879Z,4292
2022-08-14T12:29:23.736Z,4288
2022-08-14T12:30:39.327Z,4304
2022-08-14T12:31:28.803Z,4376
2022-08-14T12:32:22.179Z,4508
2022-08-14T12:33:35.865Z,4684
2022-08-14T12:34:28.576Z,4632
2022-08-14T12:35:23.295Z,4680
2022-08-14T12:36:29.908Z,4716
2022-08-14T12:37:22.878Z,4760
2022-08-14T12:38:28.971Z,4844
2022-08-14T12:39:23.728Z,4924
2022-08-14T12:40:27.878Z,5004
2022-08-14T12:41:37.121Z,5080
2022-08-14T12:42:56.600Z,5148
2022-08-14T12:43:23.588Z,5176
2022-08-14T12:44:24.802Z,5244
2022-08-14T12:45:24.865Z,5332
2022-08-14T12:46:35.014Z,5464
2022-08-14T12:47:23.102Z,5564
2022-08-14T12:48:41.100Z,5436
2022-08-14T12:49:28.238Z,5456
2022-08-14T12:50:26.635Z,5108
2022-08-14T12:51:27.665Z,5104
2022-08-14T12:53:13.804Z,4488
2022-08-14T12:53:27.126Z,4380
2022-08-14T12:54:50.550Z,4068
2022-08-14T12:56:22.902Z,4116
2022-08-14T12:56:50.358Z,4196
2022-08-14T12:57:45.994Z,4372
2022-08-14T12:58:59.990Z,4612
2022-08-14T12:59:51.923Z,4752
2022-08-14T13:01:22.943Z,5208
2022-08-14T13:02:15.850Z,5500
2022-08-14T13:02:57.124Z,5668
2022-08-14T13:03:53.190Z,5968
2022-08-14T13:04:50.965Z,5808
2022-08-14T13:05:46.819Z,5812
2022-08-14T13:06:50.533Z,5484
2022-08-14T13:07:54.117Z,5412
2022-08-14T13:09:02.971Z,5016
2022-08-14T13:09:49.337Z,4868
2022-08-14T13:11:05.044Z,4684
2022-08-14T13:12:33.334Z,4552
2022-08-14T13:13:23.849Z,4540
2022-08-14T13:14:34.664Z,4936
2022-08-14T13:15:21.607Z,4956
2022-08-14T13:16:43.423Z,4828
2022-08-14T13:17:20.033Z,4800
2022-08-14T13:18:20.249Z,4896
2022-08-14T13:19:24.293Z,5180
2022-08-14T13:20:37.221Z,5124
2022-08-14T13:21:24.325Z,5184
2022-08-14T13:22:46.601Z,5184
2022-08-14T13:23:38.426Z,5192
2022-08-14T13:24:22.520Z,5216
2022-08-14T13:25:23.590Z,5272
2022-08-14T13:26:21.521Z,5348
2022-08-14T13:27:21.243Z,5444
2022-08-14T13:29:03.556Z,5540
2022-08-14T13:29:22.615Z,5540
2022-08-14T13:30:31.906Z,5468
2022-08-14T13:31:30.254Z,5428
2022-08-14T13:32:19.782Z,5424
2022-08-14T13:33:24.007Z,5608
2022-08-14T13:34:19.835Z,5872
2022-08-14T13:35:27.101Z,6060
2022-08-14T13:37:06.160Z,6024
2022-08-14T13:37:22.798Z,5992
2022-08-14T13:38:21.994Z,5852
2022-08-14T13:39:20.326Z,5592
2022-08-14T13:40:19.500Z,5292
2022-08-14T13:41:19.904Z,5240
2022-08-14T13:42:20.620Z,5324
2022-08-14T13:43:25.766Z,5220
2022-08-14T13:44:28.843Z,5056
2022-08-14T13:45:23.650Z,4892
2022-08-14T13:46:20.335Z,4872
2022-08-14T13:47:22.088Z,4924
2022-08-14T13:48:41.092Z,4852
2022-08-14T13:49:26.038Z,4888
2022-08-14T13:50:23.125Z,5020
2022-08-14T13:51:19.943Z,5236
2022-08-14T13:52:59.886Z,5488
2022-08-14T13:53:20.424Z,5528
2022-08-14T13:54:20.355Z,5660
2022-08-14T13:55:21.854Z,5876
2022-08-14T13:56:40.555Z,6032
2022-08-14T13:57:22.897Z,6248
2022-08-14T13:58:49.268Z,6644
2022-08-14T13:59:44.519Z,6848
2022-08-14T14:00:51.656Z,6988
2022-08-14T14:01:22.678Z,7144
2022-08-14T14:02:39.048Z,7160
2022-08-14T14:03:21.845Z,7172
2022-08-14T14:04:28.364Z,7124
2022-08-14T14:05:25.385Z,7008
2022-08-14T14:06:20.921Z,6844
2022-08-14T14:07:20.823Z,6628
2022-08-14T14:08:52.876Z,6216
2022-08-14T14:09:21.472Z,6168
2022-08-14T14:10:30.359Z,6120
2022-08-14T14:11:23.628Z,6220
2022-08-14T14:12:58.643Z,6444
2022-08-14T14:13:23.998Z,6264
2022-08-14T14:15:04.798Z,6232
2022-08-14T14:15:34.098Z,6304
2022-08-14T14:16:35.438Z,6312